Burke Lakefront Airport
KBKL : now visible

Airfield :











YOU CAN JOIN US ON...

 
LOGIN :

Register | Disclaimer

   EN    FR    IT 

 









Legend :    VFR   Marginal VFR   IFR   Intensive IFR   Very Intensive IFR
Visi :
Ceiling :
>= 8 km
>= 3000ft
5 to 8 km
1000 to 3000 ft
1500m to 5 km
500 to 1000 ft
800 to 1500m
200 to 500 ft
< 800m
< 200 ft
Symbols :   Thunderstorms  Fog  Heavy snow  Heavy precipitations  Wind > 20 kt






- Airport Elevation : 583 ft
- IATA code : BKL


KBKL - Burke Lakefront

CURRENT METAR :
  • 200253Z 26010G14KT 2 1/2SM -SN BKN010 OVC019 M06/M08 A3030 RMK AO2 VIS 2V3 SLP272 P0000 60000 T10561083 51012

EXPIRED METARs :
  • 200230Z 23012KT 2 1/2SM -SN OVC013 M07/M10 A3030 RMK AO2 P0000 T10721100
  • 200213Z 21012KT 2SM -SN BKN014 OVC021 M07/M10 A3030 RMK AO2 P0000 T10721100
  • 200153Z 22017G21KT 4SM -SN BKN016 OVC020 M07/M11 A3029 RMK AO2 SLP266 P0000 T10721106
  • 200117Z 23018KT 3SM -SN OVC014 M08/M11 A3028 RMK AO2 P0000 T10781106
  • 200109Z 23014KT 1 1/2SM -SN BKN014 OVC019 M08/M11 A3027 RMK AO2 P0000 T10781106
  • 200053Z 23016KT 1 1/4SM -SN OVC017 M07/M10 A3027 RMK AO2 PK WND 24026/0011 SLP259 P0000 T10721100

TAF N/A



MET'MAP, your aeronautical weather chart ! - Copyright ORBIFLY December 2007 - Disclaimer

ORBIFLY MET'MAP TEAM :

Programming & Development : Alexandra Zaïnal
Concept & original design : Baudouin d'Aumeries
Assistance for programming : Marc-Olivier Méhu
Technical & hardware support : Manuel Goepfert

Contact : metmap@orbifly.com




SOURCES & CREDITS :

   NOAA       Earth
Advisory